createdAt,value
2018-02-14T00:00:39.650Z,66.33
2018-02-14T00:03:07.245Z,66.09
2018-02-14T00:05:34.796Z,66.44
2018-02-14T00:08:02.387Z,65.84
2018-02-14T00:10:29.926Z,65.52
2018-02-14T00:12:57.551Z,66.15
2018-02-14T00:15:25.095Z,68.31
2018-02-14T00:17:53.635Z,68.01
2018-02-14T00:20:21.184Z,67.33
2018-02-14T00:22:49.140Z,67.21
2018-02-14T00:25:17.454Z,67.14
2018-02-14T00:27:45.051Z,67.57
2018-02-14T00:30:12.599Z,67.24
2018-02-14T00:32:40.188Z,66.76
2018-02-14T00:35:07.741Z,66.27
2018-02-14T00:37:35.322Z,66.10
2018-02-14T00:40:02.873Z,66.09
2018-02-14T00:42:30.459Z,66.89
2018-02-14T00:44:58.013Z,67.67
2018-02-14T00:47:25.832Z,68.02
2018-02-14T00:49:53.383Z,67.12
2018-02-14T00:52:20.938Z,66.53
2018-02-14T00:54:48.530Z,66.22
2018-02-14T00:57:16.118Z,66.38
2018-02-14T00:59:43.795Z,65.98
2018-02-14T01:02:11.392Z,66.58
2018-02-14T01:04:38.931Z,69.34
2018-02-14T01:07:06.470Z,70.43
2018-02-14T01:09:34.046Z,69.89
2018-02-14T01:12:02.074Z,70.42
2018-02-14T01:14:29.663Z,70.07
2018-02-14T01:16:57.572Z,69.00
2018-02-14T01:19:25.198Z,68.78
2018-02-14T01:21:52.754Z,68.51
2018-02-14T01:24:20.895Z,67.71
2018-02-14T01:26:48.476Z,67.33
2018-02-14T01:29:30.852Z,67.74
2018-02-14T01:32:13.511Z,66.89
2018-02-14T01:34:56.196Z,67.62
2018-02-14T01:37:38.935Z,67.53
2018-02-14T01:40:21.611Z,67.08
2018-02-14T01:43:04.398Z,66.75
2018-02-14T01:45:47.418Z,68.32
2018-02-14T01:48:31.315Z,68.72
2018-02-14T01:51:15.342Z,68.30
2018-02-14T01:53:58.198Z,67.83
2018-02-14T01:56:41.476Z,67.25
2018-02-14T01:59:24.680Z,68.15
2018-02-14T02:02:07.800Z,71.33
2018-02-14T02:04:35.402Z,72.65
2018-02-14T02:07:03.436Z,73.51
2018-02-14T02:09:31.626Z,74.16
2018-02-14T02:11:59.206Z,75.15
2018-02-14T02:14:27.035Z,75.84
2018-02-14T02:16:55.368Z,76.15
2018-02-14T02:19:22.916Z,76.30
2018-02-14T02:21:50.507Z,76.59
2018-02-14T02:24:18.088Z,76.44
2018-02-14T02:26:45.672Z,75.88
2018-02-14T02:29:13.258Z,74.57
2018-02-14T02:31:40.804Z,73.18
2018-02-14T02:34:08.359Z,71.63
2018-02-14T02:36:35.957Z,71.19
2018-02-14T02:39:03.595Z,70.22
2018-02-14T02:41:31.141Z,69.75
2018-02-14T02:43:59.533Z,69.20
2018-02-14T02:46:27.119Z,69.27
2018-02-14T02:48:54.666Z,68.88
2018-02-14T02:51:22.355Z,68.57
2018-02-14T02:53:49.894Z,68.03
2018-02-14T02:56:17.870Z,68.46
2018-02-14T02:58:45.467Z,68.45
2018-02-14T03:01:13.068Z,69.33
2018-02-14T03:03:41.366Z,68.76
2018-02-14T03:06:08.922Z,68.44
2018-02-14T03:08:36.507Z,68.87
2018-02-14T03:11:04.626Z,69.19
2018-02-14T03:13:32.167Z,68.92
2018-02-14T03:15:59.776Z,68.50
2018-02-14T03:18:27.363Z,69.04
2018-02-14T03:20:55.424Z,70.31
2018-02-14T03:23:23.443Z,71.02
2018-02-14T03:25:51.026Z,70.50
2018-02-14T03:28:19.140Z,70.15
2018-02-14T03:30:46.748Z,70.36
2018-02-14T03:33:15.421Z,71.77
2018-02-14T03:35:42.972Z,72.96
2018-02-14T03:38:10.526Z,74.77
2018-02-14T03:40:38.114Z,75.84
2018-02-14T03:43:05.742Z,76.79
2018-02-14T03:45:33.322Z,76.55
2018-02-14T03:48:00.923Z,76.34
2018-02-14T03:50:28.489Z,75.59
2018-02-14T03:52:56.413Z,74.31
2018-02-14T03:55:23.965Z,75.49
2018-02-14T03:57:51.827Z,75.80
2018-02-14T04:00:19.776Z,75.42
2018-02-14T04:02:47.319Z,75.24
2018-02-14T04:05:14.956Z,75.88
2018-02-14T04:07:43.192Z,76.92
2018-02-14T04:10:10.743Z,76.87
2018-02-14T04:12:38.322Z,75.32
2018-02-14T04:15:05.888Z,74.37
2018-02-14T04:17:34.036Z,73.60
2018-02-14T04:20:01.585Z,72.99
2018-02-14T04:22:29.207Z,73.75
2018-02-14T04:24:56.825Z,74.26
2018-02-14T04:27:24.380Z,74.19
2018-02-14T04:29:51.981Z,73.15
2018-02-14T04:32:19.894Z,74.22
2018-02-14T04:34:47.476Z,75.52
2018-02-14T04:37:15.218Z,76.31
2018-02-14T04:39:42.815Z,75.51
2018-02-14T04:42:10.761Z,75.52
2018-02-14T04:44:39.338Z,76.09
2018-02-14T04:47:07.999Z,76.77
2018-02-14T04:49:35.545Z,77.09
2018-02-14T04:52:03.747Z,76.41
2018-02-14T04:54:31.291Z,75.02
2018-02-14T04:56:59.707Z,74.75
2018-02-14T04:59:27.260Z,73.90
2018-02-14T05:01:55.100Z,73.11
2018-02-14T05:04:23.198Z,73.20
2018-02-14T05:06:50.748Z,72.19
2018-02-14T05:09:19.270Z,71.17
2018-02-14T05:11:46.811Z,71.12
2018-02-14T05:14:14.408Z,70.86
2018-02-14T05:16:41.959Z,71.88
2018-02-14T05:19:10.487Z,73.40
2018-02-14T05:21:38.066Z,72.66
2018-02-14T05:24:06.005Z,71.61
2018-02-14T05:26:33.557Z,71.24
2018-02-14T05:29:01.378Z,71.10
2018-02-14T05:31:29.211Z,72.92
2018-02-14T05:33:57.257Z,73.93
2018-02-14T05:36:25.411Z,74.49
2018-02-14T05:38:53.171Z,74.77
2018-02-14T05:41:20.728Z,74.78
2018-02-14T05:43:48.429Z,75.10
2018-02-14T05:46:16.197Z,75.10
2018-02-14T05:48:44.882Z,74.24
2018-02-14T05:51:12.480Z,73.98
2018-02-14T05:53:40.194Z,73.88
2018-02-14T05:56:07.791Z,73.79
2018-02-14T05:58:35.662Z,73.12
2018-02-14T06:01:04.144Z,71.99
2018-02-14T06:03:31.737Z,71.67
2018-02-14T06:05:59.537Z,72.69
2018-02-14T06:08:27.144Z,73.22
2018-02-14T06:10:55.540Z,73.36
2018-02-14T06:13:23.520Z,73.82
2018-02-14T06:15:51.509Z,72.56
2018-02-14T06:18:19.130Z,71.50
2018-02-14T06:20:46.725Z,70.24
2018-02-14T06:23:14.315Z,69.63
2018-02-14T06:25:43.303Z,68.98
2018-02-14T06:28:10.868Z,69.12
2018-02-14T06:30:38.859Z,70.52
2018-02-14T06:33:06.457Z,72.21
2018-02-14T06:35:34.078Z,73.37
2018-02-14T06:38:01.954Z,74.15
2018-02-14T06:40:30.268Z,74.30
2018-02-14T06:42:57.876Z,73.99
2018-02-14T06:45:25.586Z,74.15
2018-02-14T06:47:53.131Z,73.57
2018-02-14T06:50:20.738Z,72.86
2018-02-14T06:52:48.331Z,73.39
2018-02-14T06:55:15.934Z,73.43
2018-02-14T06:57:43.808Z,73.08
2018-02-14T07:00:12.727Z,72.82
2018-02-14T07:02:40.383Z,73.50
2018-02-14T07:05:08.390Z,74.59
2018-02-14T07:07:37.323Z,75.26
2018-02-14T07:10:05.858Z,75.55
2018-02-14T07:12:33.554Z,76.06
2018-02-14T07:15:01.528Z,75.79
2018-02-14T07:17:29.087Z,76.22
2018-02-14T07:19:57.056Z,76.26
2018-02-14T07:22:24.620Z,76.39
2018-02-14T07:24:52.195Z,76.95
2018-02-14T07:27:19.895Z,76.50
2018-02-14T07:29:47.638Z,75.58
2018-02-14T07:32:15.190Z,75.17
2018-02-14T07:34:42.862Z,74.92
2018-02-14T07:37:10.451Z,74.96
2018-02-14T07:39:38.759Z,75.02
2018-02-14T07:42:06.915Z,75.72
2018-02-14T07:44:34.473Z,76.49
2018-02-14T07:47:02.133Z,77.48
2018-02-14T07:49:29.728Z,77.30
2018-02-14T07:51:57.279Z,77.12
2018-02-14T07:54:25.602Z,76.61
2018-02-14T07:56:54.032Z,75.63
2018-02-14T07:59:21.957Z,75.01
2018-02-14T08:01:49.571Z,74.80
2018-02-14T08:04:17.168Z,74.43
2018-02-14T08:06:44.759Z,74.38
2018-02-14T08:09:13.233Z,74.21
2018-02-14T08:11:41.072Z,74.00
2018-02-14T08:14:08.641Z,73.96
2018-02-14T08:16:36.261Z,74.18
2018-02-14T08:19:03.821Z,74.66
2018-02-14T08:21:31.505Z,74.73
2018-02-14T08:23:59.096Z,74.49
2018-02-14T08:26:26.641Z,74.19
2018-02-14T08:28:54.737Z,73.95
2018-02-14T08:31:22.795Z,73.79
2018-02-14T08:33:50.368Z,74.24
2018-02-14T08:36:18.151Z,74.13
2018-02-14T08:38:45.912Z,73.94
2018-02-14T08:41:13.829Z,74.06
2018-02-14T08:43:41.629Z,75.02
2018-02-14T08:46:10.615Z,75.01
2018-02-14T08:48:38.173Z,75.19
2018-02-14T08:51:05.727Z,74.52
2018-02-14T08:53:33.336Z,74.28
2018-02-14T08:56:01.675Z,74.13
2018-02-14T08:58:29.262Z,73.82
2018-02-14T09:00:56.834Z,73.84
2018-02-14T09:03:24.481Z,73.72
2018-02-14T09:05:52.456Z,74.07
2018-02-14T09:08:20.093Z,74.24
2018-02-14T09:10:48.009Z,74.69
2018-02-14T09:13:15.718Z,74.76
2018-02-14T09:15:44.137Z,75.34
2018-02-14T09:18:11.737Z,75.10
2018-02-14T09:20:39.288Z,74.51
2018-02-14T09:23:07.016Z,74.91
2018-02-14T09:25:35.392Z,74.50
2018-02-14T09:28:03.832Z,73.99
2018-02-14T09:30:31.794Z,73.89
2018-02-14T09:33:00.564Z,73.95
2018-02-14T09:35:28.154Z,73.70
2018-02-14T09:37:56.454Z,73.51
2018-02-14T09:40:24.010Z,72.97
2018-02-14T09:42:52.364Z,73.12
2018-02-14T09:45:19.991Z,73.27
2018-02-14T09:47:47.582Z,74.06
2018-02-14T09:50:15.854Z,74.46
2018-02-14T09:52:43.515Z,74.87
2018-02-14T09:55:11.058Z,74.40
2018-02-14T09:57:38.624Z,74.36
2018-02-14T10:00:06.858Z,74.15
2018-02-14T10:02:35.354Z,74.43
2018-02-14T10:05:02.940Z,74.37
2018-02-14T10:07:30.539Z,74.12
2018-02-14T10:09:58.290Z,74.25
2018-02-14T10:12:27.154Z,74.28
2018-02-14T10:14:55.071Z,73.85
2018-02-14T10:17:22.629Z,74.14
2018-02-14T10:19:50.187Z,73.77
2018-02-14T10:22:17.776Z,73.26
2018-02-14T10:24:45.380Z,72.86
2018-02-14T10:27:14.159Z,72.76
2018-02-14T10:29:41.903Z,72.18
2018-02-14T10:32:09.647Z,72.29
2018-02-14T10:34:37.248Z,71.22
2018-02-14T10:37:04.912Z,70.80
2018-02-14T10:39:32.459Z,71.58
2018-02-14T10:42:00.404Z,70.54
2018-02-14T10:44:27.972Z,70.22
2018-02-14T10:46:55.969Z,70.02
2018-02-14T10:49:24.637Z,68.18
2018-02-14T10:51:52.230Z,67.73
2018-02-14T10:54:19.831Z,67.35
2018-02-14T10:56:48.640Z,68.02
2018-02-14T10:59:16.824Z,68.50
2018-02-14T11:01:50.431Z,68.04
2018-02-14T11:04:23.843Z,68.77
2018-02-14T11:06:51.418Z,67.87
2018-02-14T11:09:19.035Z,68.58
2018-02-14T11:11:47.493Z,69.05
2018-02-14T11:14:16.020Z,69.31
2018-02-14T11:16:43.620Z,68.88
2018-02-14T11:19:12.249Z,68.95
2018-02-14T11:21:39.880Z,68.77
2018-02-14T11:24:07.779Z,69.07
2018-02-14T11:26:35.316Z,67.98
2018-02-14T11:29:02.915Z,66.82
2018-02-14T11:31:30.471Z,67.18
2018-02-14T11:33:58.050Z,66.09
2018-02-14T11:36:25.629Z,66.25
2018-02-14T11:38:53.236Z,65.52
2018-02-14T11:41:20.835Z,64.98
2018-02-14T11:43:49.212Z,63.83
2018-02-14T11:46:16.901Z,64.59
2018-02-14T11:48:45.362Z,64.36
2018-02-14T11:51:14.023Z,63.47
2018-02-14T11:53:42.290Z,63.77
2018-02-14T11:56:09.925Z,64.55
2018-02-14T11:58:37.515Z,64.87
2018-02-14T12:01:05.047Z,64.54
2018-02-14T12:03:32.643Z,63.17
2018-02-14T12:06:00.344Z,64.01
2018-02-14T12:08:28.917Z,63.81
2018-02-14T12:10:57.106Z,62.96
2018-02-14T12:13:25.376Z,63.06
2018-02-14T12:15:52.974Z,63.28
2018-02-14T12:18:20.725Z,63.28
2018-02-14T12:20:48.298Z,63.68
2018-02-14T12:23:16.214Z,63.32
2018-02-14T12:25:45.511Z,63.01
2018-02-14T12:28:13.113Z,62.30
2018-02-14T12:30:41.079Z,61.95
2018-02-14T12:33:08.847Z,61.46
2018-02-14T12:35:38.651Z,61.93
2018-02-14T12:38:06.633Z,61.15
2018-02-14T12:40:34.188Z,60.88
2018-02-14T12:43:02.737Z,61.01
2018-02-14T12:45:30.430Z,61.10
2018-02-14T12:47:58.303Z,60.79
2018-02-14T12:50:25.840Z,58.40
2018-02-14T12:52:54.563Z,58.80
2018-02-14T12:55:22.604Z,58.68
2018-02-14T12:57:50.411Z,58.72
2018-02-14T13:00:19.689Z,59.26
2018-02-14T13:02:47.258Z,57.92
2018-02-14T13:05:14.860Z,57.21
2018-02-14T13:07:43.364Z,56.82
2018-02-14T13:10:10.958Z,57.95
2018-02-14T13:12:38.542Z,57.11
2018-02-14T13:15:06.948Z,56.21
2018-02-14T13:17:34.686Z,56.51
2018-02-14T13:20:02.289Z,57.51
2018-02-14T13:22:31.439Z,56.79
2018-02-14T13:24:59.455Z,55.50
2018-02-14T13:27:26.999Z,55.39
2018-02-14T13:29:55.138Z,56.30
2018-02-14T13:32:22.731Z,56.43
2018-02-14T13:34:50.275Z,56.56
2018-02-14T13:37:17.877Z,55.39
2018-02-14T13:39:45.541Z,56.67
2018-02-14T13:42:13.946Z,57.45
2018-02-14T13:44:41.871Z,56.22
2018-02-14T13:47:09.408Z,55.95
2018-02-14T13:49:37.017Z,54.86
2018-02-14T13:52:04.722Z,54.80
2018-02-14T13:54:32.269Z,55.39
2018-02-14T13:57:00.076Z,56.06
2018-02-14T13:59:29.433Z,56.17
2018-02-14T14:01:56.982Z,55.14
2018-02-14T14:04:25.310Z,55.85
2018-02-14T14:06:52.909Z,56.25
2018-02-14T14:09:20.465Z,55.86
2018-02-14T14:11:48.910Z,55.88
2018-02-14T14:14:17.051Z,55.23
2018-02-14T14:16:45.063Z,54.54
2018-02-14T14:19:13.154Z,54.98
2018-02-14T14:21:41.471Z,55.17
2018-02-14T14:24:09.032Z,55.15
2018-02-14T14:26:37.435Z,53.98
2018-02-14T14:29:05.040Z,55.45
2018-02-14T14:31:32.617Z,55.85
2018-02-14T14:34:00.932Z,54.24
2018-02-14T14:36:29.089Z,54.08
2018-02-14T14:38:57.100Z,54.86
2018-02-14T14:41:24.681Z,54.88
2018-02-14T14:43:53.114Z,55.31
2018-02-14T14:46:20.680Z,55.65
2018-02-14T14:48:49.982Z,55.69
2018-02-14T14:51:17.611Z,55.57
2018-02-14T14:53:47.652Z,55.70
2018-02-14T14:56:16.016Z,55.44
2018-02-14T14:58:44.750Z,55.15
2018-02-14T15:01:12.480Z,54.79
2018-02-14T15:03:41.516Z,55.95
2018-02-14T15:06:09.580Z,55.01
2018-02-14T15:08:37.195Z,54.88
2018-02-14T15:11:05.082Z,55.22
2018-02-14T15:13:32.910Z,55.13
2018-02-14T15:16:01.492Z,55.02
2018-02-14T15:18:29.351Z,54.40
2018-02-14T15:20:57.060Z,55.75
2018-02-14T15:23:25.864Z,56.38
2018-02-14T15:25:53.699Z,55.96
2018-02-14T15:28:21.829Z,55.92
2018-02-14T15:30:50.279Z,55.86
2018-02-14T15:33:18.733Z,56.27
2018-02-14T15:35:46.281Z,55.85
2018-02-14T15:38:14.128Z,56.68
2018-02-14T15:40:41.724Z,55.97
2018-02-14T15:43:09.748Z,56.16
2018-02-14T15:45:37.699Z,56.23
2018-02-14T15:48:05.536Z,55.94
2018-02-14T15:50:33.306Z,54.77
2018-02-14T15:53:01.589Z,55.75
2018-02-14T15:55:29.156Z,55.35
2018-02-14T15:57:57.580Z,55.50
2018-02-14T16:00:26.796Z,55.90
2018-02-14T16:02:54.342Z,56.32
2018-02-14T16:05:22.074Z,55.94
2018-02-14T16:07:51.125Z,56.30
2018-02-14T16:10:19.282Z,55.14
2018-02-14T16:12:47.456Z,55.28
2018-02-14T16:15:15.219Z,55.84
2018-02-14T16:17:43.614Z,55.99
2018-02-14T16:20:12.066Z,55.12
2018-02-14T16:22:39.720Z,55.09
2018-02-14T16:25:07.634Z,55.15
2018-02-14T16:27:35.188Z,55.02
2018-02-14T16:30:02.789Z,54.78
2018-02-14T16:32:30.376Z,54.57
2018-02-14T16:34:57.958Z,55.03
2018-02-14T16:37:25.511Z,55.41
2018-02-14T16:39:53.093Z,55.45
2018-02-14T16:42:21.048Z,55.07
2018-02-14T16:44:48.639Z,55.46
2018-02-14T16:47:16.934Z,55.64
2018-02-14T16:49:45.672Z,55.22
2018-02-14T16:52:14.103Z,55.69
2018-02-14T16:54:41.716Z,55.31
2018-02-14T16:57:09.411Z,54.94
2018-02-14T16:59:38.173Z,55.78
2018-02-14T17:02:06.144Z,55.48
2018-02-14T17:04:33.779Z,55.34
2018-02-14T17:07:01.334Z,54.98
2018-02-14T17:09:29.298Z,55.28
2018-02-14T17:11:57.282Z,55.17
2018-02-14T17:14:24.830Z,55.25
2018-02-14T17:16:52.375Z,54.60
2018-02-14T17:19:19.979Z,53.51
2018-02-14T17:21:47.768Z,54.65
2018-02-14T17:24:15.340Z,54.67
2018-02-14T17:26:43.782Z,54.26
2018-02-14T17:29:12.534Z,54.07
2018-02-14T17:31:41.451Z,53.99
2018-02-14T17:34:09.021Z,54.76
2018-02-14T17:36:37.019Z,54.12
2018-02-14T17:39:04.608Z,53.92
2018-02-14T17:41:32.219Z,54.45
2018-02-14T17:43:59.771Z,54.20
2018-02-14T17:46:27.890Z,54.27
2018-02-14T17:48:55.884Z,53.75
2018-02-14T17:51:24.162Z,54.06
2018-02-14T17:53:51.708Z,52.66
2018-02-14T17:56:19.300Z,53.57
2018-02-14T17:58:46.887Z,53.77
2018-02-14T18:01:14.889Z,53.85
2018-02-14T18:03:42.500Z,52.95
2018-02-14T18:06:10.092Z,53.29
2018-02-14T18:08:38.636Z,53.70
2018-02-14T18:11:06.223Z,53.11
2018-02-14T18:13:34.100Z,52.37
2018-02-14T18:16:02.588Z,53.50
2018-02-14T18:18:30.139Z,52.89
2018-02-14T18:20:57.741Z,53.63
2018-02-14T18:23:25.294Z,53.63
2018-02-14T18:25:54.044Z,53.31
2018-02-14T18:28:22.284Z,51.65
2018-02-14T18:30:50.360Z,53.09
2018-02-14T18:33:17.946Z,52.75
2018-02-14T18:35:45.842Z,53.35
2018-02-14T18:38:14.590Z,53.21
2018-02-14T18:40:42.959Z,52.89
2018-02-14T18:43:10.554Z,52.54
2018-02-14T18:45:40.368Z,53.06
2018-02-14T18:48:07.982Z,52.44
2018-02-14T18:50:35.536Z,52.88
2018-02-14T18:53:03.082Z,50.96
2018-02-14T18:55:32.314Z,52.76
2018-02-14T18:58:00.534Z,53.31
2018-02-14T19:00:28.920Z,52.60
2018-02-14T19:02:57.249Z,52.55
2018-02-14T19:05:24.869Z,52.32
2018-02-14T19:07:53.133Z,51.86
2018-02-14T19:10:20.741Z,52.25
2018-02-14T19:12:50.364Z,52.36
2018-02-14T19:15:17.954Z,51.96
2018-02-14T19:17:45.772Z,53.11
2018-02-14T19:20:14.121Z,52.66
2018-02-14T19:22:43.092Z,52.42
2018-02-14T19:25:10.967Z,52.54
2018-02-14T19:27:39.121Z,52.97
2018-02-14T19:30:06.662Z,52.82
2018-02-14T19:32:35.093Z,52.86
2018-02-14T19:35:02.721Z,52.58
2018-02-14T19:37:31.181Z,52.98
2018-02-14T19:39:58.783Z,53.00
2018-02-14T19:42:26.347Z,52.71
2018-02-14T19:44:53.974Z,53.06
2018-02-14T19:47:21.520Z,52.56
2018-02-14T19:49:50.411Z,52.77
2018-02-14T19:52:19.199Z,52.17
2018-02-14T19:54:47.605Z,52.48
2018-02-14T19:57:15.163Z,52.88
2018-02-14T19:59:42.769Z,52.33
2018-02-14T20:02:10.487Z,52.16
2018-02-14T20:04:38.035Z,52.53
2018-02-14T20:07:06.273Z,52.17
2018-02-14T20:09:33.819Z,51.66
2018-02-14T20:12:01.379Z,52.57
2018-02-14T20:14:29.442Z,52.28
2018-02-14T20:16:58.161Z,52.80
2018-02-14T20:19:28.204Z,52.91
2018-02-14T20:21:56.313Z,52.43
2018-02-14T20:24:25.172Z,52.83
2018-02-14T20:26:52.715Z,52.91
2018-02-14T20:29:20.312Z,52.62
2018-02-14T20:31:47.859Z,52.39
2018-02-14T20:34:15.462Z,52.37
2018-02-14T20:36:44.048Z,52.90
2018-02-14T20:39:12.737Z,52.78
2018-02-14T20:41:41.558Z,53.28
2018-02-14T20:44:10.314Z,52.44
2018-02-14T20:46:38.085Z,52.69
2018-02-14T20:49:07.353Z,52.37
2018-02-14T20:51:35.149Z,52.02
2018-02-14T20:54:02.720Z,53.07
2018-02-14T20:56:30.307Z,52.66
2018-02-14T20:59:00.055Z,52.68
2018-02-14T21:01:27.658Z,53.06
2018-02-14T21:03:55.938Z,53.56
2018-02-14T21:06:23.892Z,53.71
2018-02-14T21:08:51.639Z,54.13
2018-02-14T21:11:19.387Z,53.17
2018-02-14T21:13:47.228Z,53.35
2018-02-14T21:16:16.080Z,53.03
2018-02-14T21:18:43.660Z,53.05
2018-02-14T21:21:11.900Z,52.60
2018-02-14T21:23:39.442Z,52.49
2018-02-14T21:26:07.751Z,52.74
2018-02-14T21:28:35.351Z,54.13
2018-02-14T21:31:02.955Z,53.44
2018-02-14T21:33:30.560Z,53.29
2018-02-14T21:35:58.112Z,53.58
2018-02-14T21:38:25.672Z,53.69
2018-02-14T21:40:53.908Z,52.83
2018-02-14T21:43:21.500Z,54.13
2018-02-14T21:45:49.219Z,54.14
2018-02-14T21:48:16.810Z,54.43
2018-02-14T21:50:44.401Z,54.36
2018-02-14T21:53:11.944Z,55.44
2018-02-14T21:55:39.914Z,54.24
2018-02-14T21:58:07.512Z,53.79
2018-02-14T22:00:35.869Z,54.59
2018-02-14T22:03:03.832Z,54.84
2018-02-14T22:05:32.414Z,54.65
2018-02-14T22:08:00.262Z,53.64
2018-02-14T22:10:28.664Z,53.84
2018-02-14T22:12:56.274Z,52.29
2018-02-14T22:15:23.826Z,52.59
2018-02-14T22:17:52.452Z,52.18
2018-02-14T22:20:20.356Z,53.49
2018-02-14T22:22:47.976Z,54.31
2018-02-14T22:25:15.524Z,54.34
2018-02-14T22:27:43.106Z,54.62
2018-02-14T22:30:10.654Z,54.50
2018-02-14T22:32:38.684Z,55.15
2018-02-14T22:35:06.788Z,55.28
2018-02-14T22:37:34.370Z,54.27
2018-02-14T22:40:02.657Z,53.47
2018-02-14T22:42:30.376Z,54.41
2018-02-14T22:44:58.803Z,55.25
2018-02-14T22:47:26.416Z,55.24
2018-02-14T22:49:53.979Z,55.89
2018-02-14T22:52:21.546Z,55.59
2018-02-14T22:54:49.819Z,55.36
2018-02-14T22:57:17.366Z,55.79
2018-02-14T22:59:45.474Z,55.59
2018-02-14T23:02:13.045Z,55.93
2018-02-14T23:04:40.635Z,55.66
2018-02-14T23:07:08.243Z,55.57
2018-02-14T23:09:35.847Z,55.27
2018-02-14T23:12:03.391Z,55.46
2018-02-14T23:14:30.974Z,55.66
2018-02-14T23:16:59.077Z,55.43
2018-02-14T23:19:26.684Z,56.32
2018-02-14T23:21:55.149Z,55.63
2018-02-14T23:24:22.700Z,54.31
2018-02-14T23:26:51.190Z,54.17
2018-02-14T23:29:18.739Z,54.45
2018-02-14T23:31:46.439Z,52.49
2018-02-14T23:34:14.036Z,53.11
2018-02-14T23:36:41.630Z,53.72
2018-02-14T23:39:09.181Z,52.56
2018-02-14T23:41:37.329Z,54.00
2018-02-14T23:44:04.910Z,53.53
2018-02-14T23:46:33.294Z,53.88
2018-02-14T23:49:00.912Z,54.09
2018-02-14T23:51:28.459Z,54.04
2018-02-14T23:53:56.860Z,53.90
2018-02-14T23:56:25.139Z,54.49
2018-02-14T23:58:52.684Z,54.76
